Kezdőlap
METAR-TAF:

METAR-TAF

Repülőterek :

Harlan Municipal Airport

Harlan, Iowa, Amerikai Egyesült Államok

földrajzi szélesség: 41-35-04N, földrajzi hosszúság: 095-20-23W, magasság: 375 m

Jelenlegi meteorológiai megfigyelések

A jelentés 24 perccel ezelõtt készült, 14:35 UTC
Déli szél 4 kt
Hőmérséklet -20°C
Páratartalom 92%
Légköri nyomás 1031 hPa
Látótávolság: 16.1 km
Kevés felhő 300 lábon

METAR: KHNR 211435Z AUTO 17004KT 10SM FEW003 M20/M21 A3046 RMK AO2

Idő: 08:59 (14:59 UTC)


TAF: hiányzik

Meteorológiai megfigyelések és előrejelzések több, mint 4000 repülőtéren (METAR és TAF jelentéseket).

A térképen piros és sárga pontok jelzik az elérhető meteorológiai állomásokat.

Mozgassa az egeret a pont fölött, hogy megjelenjen az állomás neve.

Azután kattintson az időjárási megfigyelések és előrejelzések megtekintéséhez.

A térkép megváltoztatása: kattintson a fekete keresztel jelölt zöld gombra ráközelítéshez, a vonallal jelölt zöld gombra távolításhoz, vagy a zöld nyilakra a szomszédos térképek eléréséhez.


METAR-TAF: